PARDEE (PAR)

Elevation: 568' · MOKELUMNE R basin · Operator: East Bay Municipal Utility District

Provisional data, subject to change.
Query executed Saturday at 17:01:55   clock

Select a sensor type for a plot of data.
Note: Reservoir Flows are daily averages.

Earlier

Date RES ELE    STORAGE    RES CHG    OUTFLOW    INFLOW    PPT INC   
 FEET   AF   AF   CFS   CFS   INCHES  
04/29/2016 559.09 179496 -506 1554 1352 0.04
04/30/2016 559.28 179894 398 1552 1506 0.00
05/01/2016 559.78 180922 1028 1562 1835 0.00
05/02/2016 560.99 183493 2571 1592 2122 0.00
05/03/2016 562.35 186389 2896 1614 2513 0.00
05/04/2016 563.63 189136 2747 1557 2588 0.00
05/05/2016 564.81 191706 2570 1550 2528 0.00
05/06/2016 565.57 193350 1644 -- -- 0.17
05/07/2016 565.92 194116 766 1499 2051 0.01
05/08/2016 565.98 194256 140 1529 1685 0.00
05/09/2016 565.82 193910 -346 1579 1581 0.00
05/10/2016 565.70 193639 -271 1572 1422 0.00
05/11/2016 565.62 193455 -184 1581 1498 0.00
05/12/2016 565.43 193056 -399 1582 1476 0.00
05/13/2016 565.26 192679 -377 1584 1509 0.00
05/14/2016 565.38 192947 268 1587 1582 0.00
05/15/2016 565.44 193074 127 1600 1701 0.00
05/16/2016 565.37 192925 -149 1622 1618 0.00
05/17/2016 565.28 192723 -202 1625 1532 0.00
05/18/2016 565.17 192474 -249 1630 1569 0.00
05/19/2016 565.05 192211 -263 1628 1582 0.00
05/20/2016 565.44 193078 867 1631 1676 0.00
05/21/2016 566.06 194428 1350 1579 1977 0.00
05/22/2016 566.41 195202 774 1620 2019 0.00
05/23/2016 566.58 195591 389 1628 1834 0.00
05/24/2016 566.69 195829 238 1627 1777 0.00
05/25/2016 566.78 196024 195 1619 1715 0.00
05/26/2016 567.01 196527 503 1612 1689 0.00
05/27/2016 567.20 196931 404 1613 1798 --
05/28/2016 -- -- -- -- -- --

Later | Latest

Warning! This data is preliminary and subject to revision.

Show PAR Map | Plot PAR Data | 1 Month PAR Data | Real-Time PAR Data | PAR Info